createdAt,value
2023-02-06T00:01:31.472Z,99.90
2023-02-06T00:03:58.882Z,99.90
2023-02-06T00:06:26.406Z,99.90
2023-02-06T00:08:53.913Z,99.90
2023-02-06T00:11:22.038Z,99.90
2023-02-06T00:13:50.027Z,99.90
2023-02-06T00:16:18.467Z,99.90
2023-02-06T00:18:46.415Z,99.90
2023-02-06T00:21:14.250Z,99.90
2023-02-06T00:23:42.161Z,99.50
2023-02-06T00:26:09.807Z,99.40
2023-02-06T00:28:38.090Z,99.60
2023-02-06T00:31:06.901Z,99.40
2023-02-06T00:33:35.320Z,99.40
2023-02-06T00:36:04.021Z,99.20
2023-02-06T00:38:31.894Z,99.10
2023-02-06T00:40:59.585Z,98.90
2023-02-06T00:43:27.128Z,98.90
2023-02-06T00:45:56.754Z,98.90
2023-02-06T00:48:25.142Z,98.70
2023-02-06T00:50:54.078Z,98.70
2023-02-06T00:53:22.217Z,98.80
2023-02-06T00:55:49.792Z,98.80
2023-02-06T00:58:17.377Z,98.70
2023-02-06T01:00:45.156Z,98.60
2023-02-06T01:03:12.967Z,98.50
2023-02-06T01:05:40.374Z,98.40
2023-02-06T01:08:07.833Z,98.30
2023-02-06T01:10:35.351Z,98.50
2023-02-06T01:13:02.871Z,98.30
2023-02-06T01:15:30.373Z,98.50
2023-02-06T01:17:57.789Z,98.60
2023-02-06T01:20:25.365Z,98.60
2023-02-06T01:22:52.796Z,98.70
2023-02-06T01:25:20.420Z,98.70
2023-02-06T01:27:48.447Z,98.70
2023-02-06T01:30:16.132Z,98.80
2023-02-06T01:32:43.756Z,98.70
2023-02-06T01:35:12.364Z,98.50
2023-02-06T01:37:41.415Z,98.60
2023-02-06T01:40:13.937Z,98.40
2023-02-06T01:42:41.729Z,98.90
2023-02-06T01:45:41.255Z,98.60
2023-02-06T01:48:13.419Z,98.60
2023-02-06T01:50:42.279Z,98.60
2023-02-06T01:53:12.960Z,98.40
2023-02-06T01:55:41.915Z,98.80
2023-02-06T01:58:12.166Z,98.30
2023-02-06T02:00:39.921Z,98.30
2023-02-06T02:03:07.542Z,98.40
2023-02-06T02:05:36.482Z,98.40
2023-02-06T02:08:11.316Z,98.40
2023-02-06T02:10:38.929Z,98.30
2023-02-06T02:13:06.435Z,98.50
2023-02-06T02:15:57.722Z,98.30
2023-02-06T02:18:43.486Z,98.50
2023-02-06T02:21:20.142Z,98.60
2023-02-06T02:23:56.602Z,98.80
2023-02-06T02:26:30.091Z,98.90
2023-02-06T02:29:21.614Z,99.10
2023-02-06T02:32:16.979Z,99.20
2023-02-06T02:34:50.234Z,99.30
2023-02-06T02:37:40.728Z,99.50
2023-02-06T02:40:30.417Z,99.60
2023-02-06T02:43:14.933Z,99.50
2023-02-06T02:45:58.050Z,99.50
2023-02-06T02:48:33.109Z,99.60
2023-02-06T02:51:01.783Z,99.80
2023-02-06T02:53:29.463Z,99.50
2023-02-06T02:55:57.161Z,99.40
2023-02-06T02:58:31.681Z,99.30
2023-02-06T03:01:05.589Z,99.40
2023-02-06T03:03:37.668Z,99.30
2023-02-06T03:06:35.424Z,99.50
2023-02-06T03:09:06.198Z,99.50
2023-02-06T03:11:41.526Z,99.50
2023-02-06T03:14:17.123Z,99.40
2023-02-06T03:16:50.665Z,99.40
2023-02-06T03:19:35.927Z,99.50
2023-02-06T03:22:05.249Z,99.90
2023-02-06T03:24:39.173Z,99.90
2023-02-06T03:27:14.116Z,99.90
2023-02-06T03:29:44.702Z,99.90
2023-02-06T03:32:41.343Z,99.90
2023-02-06T03:35:20.604Z,99.90
2023-02-06T03:37:49.155Z,99.90
2023-02-06T03:40:18.414Z,99.90
2023-02-06T03:42:57.070Z,99.90
2023-02-06T03:45:27.048Z,99.90
2023-02-06T03:47:58.984Z,99.90
2023-02-06T03:50:27.368Z,99.90
2023-02-06T03:52:58.015Z,99.90
2023-02-06T03:55:26.022Z,99.90
2023-02-06T03:58:05.655Z,99.90
2023-02-06T04:00:34.801Z,99.90
2023-02-06T04:03:02.630Z,99.90
2023-02-06T04:05:30.539Z,99.90
2023-02-06T04:07:58.114Z,99.90
2023-02-06T04:10:26.514Z,99.90
2023-02-06T04:12:54.236Z,99.90
2023-02-06T04:15:22.014Z,99.90
2023-02-06T04:18:00.160Z,99.90
2023-02-06T04:20:29.766Z,99.90
2023-02-06T04:22:58.441Z,99.90
2023-02-06T04:25:26.557Z,99.90
2023-02-06T04:27:54.045Z,99.90
2023-02-06T04:30:21.701Z,99.90
2023-02-06T04:32:49.615Z,99.90
2023-02-06T04:35:17.677Z,99.90
2023-02-06T04:37:45.298Z,99.90
2023-02-06T04:40:13.296Z,99.90
2023-02-06T04:42:40.958Z,99.90
2023-02-06T04:45:08.937Z,99.90
2023-02-06T04:47:36.497Z,99.90
2023-02-06T04:50:05.099Z,99.90
2023-02-06T04:52:32.906Z,99.90
2023-02-06T04:55:00.376Z,99.90
2023-02-06T04:57:27.949Z,99.90
2023-02-06T04:59:55.410Z,99.90
2023-02-06T05:02:22.903Z,99.90
2023-02-06T05:04:50.339Z,99.90
2023-02-06T05:07:17.876Z,99.90
2023-02-06T05:09:46.204Z,99.90
2023-02-06T05:12:14.383Z,99.90
2023-02-06T05:14:41.917Z,99.90
2023-02-06T05:17:09.299Z,99.90
2023-02-06T05:19:36.846Z,99.90
2023-02-06T05:22:04.320Z,99.90
2023-02-06T05:24:31.983Z,99.90
2023-02-06T05:26:59.458Z,99.90
2023-02-06T05:29:26.984Z,99.90
2023-02-06T05:31:54.519Z,99.90
2023-02-06T05:34:22.037Z,99.90
2023-02-06T05:36:49.496Z,99.90
2023-02-06T05:39:16.961Z,99.90
2023-02-06T05:41:44.433Z,99.90
2023-02-06T05:44:11.893Z,99.90
2023-02-06T05:46:39.529Z,99.90
2023-02-06T05:49:07.139Z,99.90
2023-02-06T05:51:34.636Z,99.90
2023-02-06T05:54:02.512Z,99.90
2023-02-06T05:56:30.138Z,99.90
2023-02-06T05:58:57.652Z,99.90
2023-02-06T06:01:25.903Z,99.90
2023-02-06T06:03:53.432Z,99.90
2023-02-06T06:06:21.161Z,99.90
2023-02-06T06:08:48.714Z,99.90
2023-02-06T06:11:16.234Z,99.90
2023-02-06T06:13:44.012Z,99.90
2023-02-06T06:16:11.655Z,99.90
2023-02-06T06:18:39.155Z,99.90
2023-02-06T06:21:06.806Z,99.90
2023-02-06T06:23:34.361Z,99.90
2023-02-06T06:26:02.049Z,99.90
2023-02-06T06:28:29.534Z,99.90
2023-02-06T06:31:05.080Z,99.90
2023-02-06T06:33:32.873Z,99.90
2023-02-06T06:36:00.524Z,99.90
2023-02-06T06:38:28.109Z,99.90
2023-02-06T06:40:55.652Z,99.90
2023-02-06T06:43:23.293Z,99.90
2023-02-06T06:45:51.187Z,99.90
2023-02-06T06:48:18.788Z,99.90
2023-02-06T06:50:46.206Z,99.90
2023-02-06T06:53:13.726Z,99.90
2023-02-06T06:55:41.201Z,99.90
2023-02-06T06:58:08.717Z,99.90
2023-02-06T07:00:38.189Z,99.90
2023-02-06T07:03:07.198Z,99.90
2023-02-06T07:05:35.765Z,99.90
2023-02-06T07:08:03.444Z,99.90
2023-02-06T07:10:30.909Z,99.90
2023-02-06T07:12:58.410Z,99.90
2023-02-06T07:15:26.104Z,99.90
2023-02-06T07:17:53.699Z,99.90
2023-02-06T07:20:21.230Z,99.90
2023-02-06T07:22:50.325Z,99.90
2023-02-06T07:25:20.322Z,99.90
2023-02-06T07:27:47.971Z,99.90
2023-02-06T07:30:15.527Z,99.90
2023-02-06T07:32:42.986Z,99.90
2023-02-06T07:35:11.033Z,99.90
2023-02-06T07:37:38.527Z,99.90
2023-02-06T07:40:06.470Z,99.90
2023-02-06T07:42:34.128Z,99.90
2023-02-06T07:45:10.443Z,99.90
2023-02-06T07:47:37.925Z,99.90
2023-02-06T07:50:05.735Z,99.90
2023-02-06T07:52:33.228Z,99.90
2023-02-06T07:55:01.158Z,99.90
2023-02-06T07:57:28.762Z,99.90
2023-02-06T07:59:56.232Z,99.90
2023-02-06T08:02:23.796Z,99.90
2023-02-06T08:04:51.418Z,99.90
2023-02-06T08:07:19.169Z,99.90
2023-02-06T08:09:46.958Z,99.90
2023-02-06T08:12:14.478Z,99.90
2023-02-06T08:14:45.806Z,99.90
2023-02-06T08:17:13.717Z,99.90
2023-02-06T08:19:41.170Z,99.90
2023-02-06T08:22:08.662Z,99.90
2023-02-06T08:24:36.236Z,99.90
2023-02-06T08:27:03.689Z,99.90
2023-02-06T08:29:31.446Z,99.90
2023-02-06T08:31:58.874Z,99.60
2023-02-06T08:34:26.618Z,99.40
2023-02-06T08:36:54.070Z,99.20
2023-02-06T08:39:21.486Z,99.00
2023-02-06T08:41:50.013Z,98.90
2023-02-06T08:44:18.250Z,98.50
2023-02-06T08:46:47.918Z,98.20
2023-02-06T08:49:19.012Z,97.30
2023-02-06T08:51:46.957Z,97.00
2023-02-06T08:54:17.769Z,97.00
2023-02-06T08:56:45.567Z,96.60
2023-02-06T08:59:14.783Z,96.80
2023-02-06T09:01:45.528Z,96.30
2023-02-06T09:04:14.405Z,96.40
2023-02-06T09:06:48.920Z,96.00
2023-02-06T09:09:16.545Z,96.10
2023-02-06T09:11:44.373Z,96.40
2023-02-06T09:14:36.679Z,96.00
2023-02-06T09:17:04.195Z,95.90
2023-02-06T09:19:31.709Z,96.10
2023-02-06T09:21:59.207Z,95.80
2023-02-06T09:24:27.456Z,96.80
2023-02-06T09:26:59.934Z,95.40
2023-02-06T09:29:31.674Z,95.40
2023-02-06T09:32:00.093Z,95.10
2023-02-06T09:34:27.934Z,95.10
2023-02-06T09:36:56.815Z,94.90
2023-02-06T09:39:25.193Z,94.80
2023-02-06T09:42:02.865Z,94.60
2023-02-06T09:44:30.433Z,95.40
2023-02-06T09:47:22.832Z,94.70
2023-02-06T09:49:54.992Z,95.50
2023-02-06T09:52:34.863Z,95.10
2023-02-06T09:55:05.160Z,94.50
2023-02-06T09:58:04.962Z,94.50
2023-02-06T10:00:48.955Z,95.40
2023-02-06T10:03:39.689Z,95.40
2023-02-06T10:06:30.523Z,93.60
2023-02-06T10:09:17.412Z,94.10
2023-02-06T10:12:03.684Z,93.90
2023-02-06T10:14:58.494Z,94.40
2023-02-06T10:17:32.636Z,94.00
2023-02-06T10:20:19.842Z,94.30
2023-02-06T10:23:09.824Z,94.00
2023-02-06T10:25:42.462Z,94.40
2023-02-06T10:28:15.772Z,94.90
2023-02-06T10:31:17.281Z,95.10
2023-02-06T10:33:47.795Z,93.70
2023-02-06T10:36:29.578Z,94.20
2023-02-06T10:39:18.429Z,94.00
2023-02-06T10:41:48.844Z,93.20
2023-02-06T10:44:16.448Z,93.90
2023-02-06T10:46:48.377Z,93.90
2023-02-06T10:49:22.295Z,93.60
2023-02-06T10:51:57.172Z,93.60
2023-02-06T10:54:36.704Z,93.60
2023-02-06T10:57:09.645Z,93.30
2023-02-06T10:59:48.107Z,94.20
2023-02-06T11:02:48.996Z,94.00
2023-02-06T11:05:24.789Z,93.80
2023-02-06T11:08:14.661Z,94.50
2023-02-06T11:10:42.471Z,94.70
2023-02-06T11:13:28.719Z,93.60
2023-02-06T11:16:08.521Z,94.00
2023-02-06T11:18:40.263Z,93.60
2023-02-06T11:21:09.627Z,93.30
2023-02-06T11:23:37.061Z,93.70
2023-02-06T11:26:15.272Z,93.20
2023-02-06T11:29:09.094Z,93.50
2023-02-06T11:31:46.333Z,93.90
2023-02-06T11:34:27.735Z,93.00
2023-02-06T11:37:00.505Z,93.00
2023-02-06T11:39:39.263Z,93.80
2023-02-06T11:42:22.329Z,93.00
2023-02-06T11:44:49.862Z,94.70
2023-02-06T11:47:37.928Z,94.90
2023-02-06T11:50:14.939Z,93.70
2023-02-06T11:52:46.886Z,93.20
2023-02-06T11:55:42.586Z,92.50
2023-02-06T11:58:12.793Z,92.90
2023-02-06T12:00:52.253Z,93.00
2023-02-06T12:03:39.061Z,93.10
2023-02-06T12:06:17.489Z,93.60
2023-02-06T12:08:52.587Z,93.30
2023-02-06T12:11:23.053Z,93.50
2023-02-06T12:14:12.095Z,93.80
2023-02-06T12:16:41.959Z,93.20
2023-02-06T12:19:19.722Z,92.60
2023-02-06T12:21:53.882Z,93.00
2023-02-06T12:24:25.459Z,93.00
2023-02-06T12:26:55.459Z,93.50
2023-02-06T12:29:33.090Z,94.30
2023-02-06T12:32:14.881Z,93.70
2023-02-06T12:35:25.182Z,93.30
2023-02-06T12:37:56.914Z,92.90
2023-02-06T12:41:03.408Z,92.90
2023-02-06T12:43:34.631Z,92.80
2023-02-06T12:46:17.456Z,92.60
2023-02-06T12:48:51.293Z,92.60
2023-02-06T12:51:32.559Z,92.10
2023-02-06T12:54:06.158Z,92.30
2023-02-06T12:57:14.522Z,92.60
2023-02-06T13:00:06.730Z,92.40
2023-02-06T13:03:18.410Z,92.40
2023-02-06T13:05:49.355Z,92.50
2023-02-06T13:08:21.080Z,92.60
2023-02-06T13:10:59.789Z,92.40
2023-02-06T13:13:28.901Z,92.20
2023-02-06T13:16:00.478Z,92.20
2023-02-06T13:18:52.571Z,92.60
2023-02-06T13:21:24.709Z,91.70
2023-02-06T13:24:14.735Z,92.20
2023-02-06T13:26:51.546Z,92.50
2023-02-06T13:29:37.673Z,92.40
2023-02-06T13:32:19.972Z,92.00
2023-02-06T13:34:53.801Z,92.00
2023-02-06T13:37:40.056Z,92.40
2023-02-06T13:40:26.771Z,92.20
2023-02-06T13:43:10.120Z,92.40
2023-02-06T13:45:53.041Z,92.20
2023-02-06T13:48:23.693Z,91.80
2023-02-06T13:51:13.214Z,92.70
2023-02-06T13:53:59.200Z,92.30
2023-02-06T13:57:08.906Z,92.10
2023-02-06T13:59:41.034Z,92.40
2023-02-06T14:02:19.235Z,92.20
2023-02-06T14:04:47.152Z,92.10
2023-02-06T14:07:26.815Z,92.90
2023-02-06T14:10:34.810Z,93.00
2023-02-06T14:13:47.739Z,92.50
2023-02-06T14:16:26.612Z,92.20
2023-02-06T14:19:32.404Z,92.90
2023-02-06T14:22:33.824Z,92.80
2023-02-06T14:25:22.764Z,93.30
2023-02-06T14:28:16.233Z,93.00
2023-02-06T14:31:01.920Z,92.80
2023-02-06T14:34:03.752Z,93.40
2023-02-06T14:37:20.483Z,92.80
2023-02-06T14:39:57.810Z,93.00
2023-02-06T14:42:31.129Z,94.20
2023-02-06T14:45:05.860Z,94.00
2023-02-06T14:47:44.208Z,94.00
2023-02-06T14:50:18.432Z,93.90
2023-02-06T14:52:50.497Z,94.40
2023-02-06T14:55:45.929Z,94.00
2023-02-06T14:58:21.068Z,93.90
2023-02-06T15:00:48.786Z,94.20
2023-02-06T15:03:19.224Z,94.30
2023-02-06T15:05:47.097Z,94.40
2023-02-06T15:08:20.628Z,94.60
2023-02-06T15:10:56.287Z,94.70
2023-02-06T15:13:34.751Z,95.00
2023-02-06T15:16:05.942Z,95.10
2023-02-06T15:18:34.837Z,95.10
2023-02-06T15:21:08.245Z,95.00
2023-02-06T15:23:55.442Z,95.00
2023-02-06T15:26:39.602Z,94.90
2023-02-06T15:29:22.012Z,94.90
2023-02-06T15:31:57.421Z,95.00
2023-02-06T15:34:26.090Z,95.20
2023-02-06T15:36:53.967Z,95.40
2023-02-06T15:39:21.817Z,95.80
2023-02-06T15:41:51.517Z,95.70
2023-02-06T15:44:27.488Z,95.60
2023-02-06T15:49:41.500Z,95.40
2023-02-06T15:52:10.897Z,95.40
2023-02-06T15:54:45.092Z,95.80
2023-02-06T15:57:31.560Z,95.80
2023-02-06T15:59:59.997Z,95.80
2023-02-06T16:02:34.231Z,95.90
2023-02-06T16:05:02.687Z,96.00
2023-02-06T16:07:37.987Z,96.10
2023-02-06T16:10:29.976Z,96.10
2023-02-06T16:13:00.174Z,96.00
2023-02-06T16:18:26.410Z,95.70
2023-02-06T16:21:30.171Z,96.20
2023-02-06T16:24:02.552Z,96.40
2023-02-06T16:26:40.385Z,96.60
2023-02-06T16:29:10.649Z,96.40
2023-02-06T16:31:44.391Z,96.30
2023-02-06T16:34:31.526Z,96.30
2023-02-06T16:36:59.098Z,95.90
2023-02-06T16:39:26.532Z,96.10
2023-02-06T16:41:54.365Z,95.70
2023-02-06T16:44:22.049Z,96.00
2023-02-06T16:46:49.471Z,96.10
2023-02-06T16:49:22.057Z,95.90
2023-02-06T16:51:53.588Z,96.10
2023-02-06T16:54:25.905Z,95.90
2023-02-06T16:56:55.651Z,96.30
2023-02-06T16:59:23.347Z,96.30
2023-02-06T17:01:50.721Z,96.40
2023-02-06T17:04:18.193Z,96.00
2023-02-06T17:06:45.841Z,96.20
2023-02-06T17:09:17.374Z,96.20
2023-02-06T17:11:45.260Z,96.20
2023-02-06T17:14:12.804Z,96.40
2023-02-06T17:16:40.322Z,96.40
2023-02-06T17:19:07.826Z,96.30
2023-02-06T17:21:35.436Z,96.10
2023-02-06T17:24:02.876Z,96.40
2023-02-06T17:26:30.461Z,96.50
2023-02-06T17:28:58.059Z,96.70
2023-02-06T17:31:25.935Z,96.50
2023-02-06T17:33:53.551Z,96.80
2023-02-06T17:36:29.367Z,96.90
2023-02-06T17:38:58.976Z,96.80
2023-02-06T17:41:27.493Z,97.00
2023-02-06T17:43:55.032Z,97.10
2023-02-06T17:46:22.552Z,97.10
2023-02-06T17:48:50.101Z,97.40
2023-02-06T17:51:17.776Z,97.10
2023-02-06T17:53:45.312Z,99.90
2023-02-06T17:56:13.719Z,97.30
2023-02-06T17:58:41.874Z,98.70
2023-02-06T18:01:17.756Z,99.90
2023-02-06T18:03:47.937Z,97.70
2023-02-06T18:06:16.030Z,99.90
2023-02-06T18:08:43.738Z,97.90
2023-02-06T18:11:18.058Z,97.90
2023-02-06T18:13:47.610Z,98.00
2023-02-06T18:16:20.759Z,98.10
2023-02-06T18:18:48.848Z,98.10
2023-02-06T18:21:19.716Z,98.30
2023-02-06T18:23:48.464Z,98.30
2023-02-06T18:26:16.446Z,98.50
2023-02-06T18:28:44.663Z,98.10
2023-02-06T18:31:30.159Z,98.40
2023-02-06T18:33:58.957Z,98.50
2023-02-06T18:36:26.894Z,98.50
2023-02-06T18:38:55.137Z,98.60
2023-02-06T18:41:41.195Z,98.80
2023-02-06T18:44:10.419Z,98.90
2023-02-06T18:46:38.378Z,98.90
2023-02-06T18:49:06.312Z,99.00
2023-02-06T18:51:33.999Z,99.00
2023-02-06T18:54:02.159Z,99.20
2023-02-06T18:56:31.035Z,99.20
2023-02-06T18:58:58.682Z,99.40
2023-02-06T19:01:26.603Z,99.50
2023-02-06T19:03:54.554Z,99.60
2023-02-06T19:06:25.692Z,99.70
2023-02-06T19:08:53.101Z,99.80
2023-02-06T19:11:20.502Z,99.80
2023-02-06T19:13:48.447Z,99.90
2023-02-06T19:16:18.132Z,99.90
2023-02-06T19:18:47.973Z,99.90
2023-02-06T19:21:18.232Z,99.90
2023-02-06T19:23:47.705Z,99.90
2023-02-06T19:26:16.654Z,99.90
2023-02-06T19:28:44.860Z,99.90
2023-02-06T19:31:13.516Z,99.90
2023-02-06T19:33:41.996Z,99.90
2023-02-06T19:36:16.630Z,99.90
2023-02-06T19:38:44.483Z,99.90
2023-02-06T19:41:20.759Z,99.90
2023-02-06T19:43:48.642Z,99.90
2023-02-06T19:46:18.709Z,99.90
2023-02-06T19:48:47.648Z,99.90
2023-02-06T19:51:24.453Z,99.90
2023-02-06T19:53:53.665Z,99.90
2023-02-06T19:56:24.144Z,99.90
2023-02-06T19:58:56.159Z,99.90
2023-02-06T20:01:24.390Z,99.90
2023-02-06T20:03:52.471Z,99.90
2023-02-06T20:06:20.079Z,99.90
2023-02-06T20:08:48.079Z,99.90
2023-02-06T20:11:21.087Z,99.90
2023-02-06T20:13:52.070Z,99.90
2023-02-06T20:16:31.633Z,99.90
2023-02-06T20:19:04.916Z,99.90
2023-02-06T20:21:39.304Z,99.90
2023-02-06T20:24:14.768Z,99.90
2023-02-06T20:26:43.506Z,99.90
2023-02-06T20:29:19.777Z,99.90
2023-02-06T20:31:47.846Z,99.90
2023-02-06T20:34:15.907Z,99.90
2023-02-06T20:36:43.632Z,99.90
2023-02-06T20:39:13.087Z,99.90
2023-02-06T20:41:41.295Z,99.90
2023-02-06T20:44:10.996Z,99.90
2023-02-06T20:46:39.595Z,99.90
2023-02-06T20:49:12.754Z,99.90
2023-02-06T20:51:40.305Z,99.90
2023-02-06T20:54:08.121Z,99.90
2023-02-06T20:56:35.604Z,99.90
2023-02-06T20:59:03.318Z,99.90
2023-02-06T21:01:31.357Z,99.90
2023-02-06T21:04:02.852Z,99.90
2023-02-06T21:06:31.045Z,99.90
2023-02-06T21:09:01.721Z,99.90
2023-02-06T21:11:31.399Z,99.90
2023-02-06T21:14:01.441Z,99.90
2023-02-06T21:16:30.687Z,99.90
2023-02-06T21:18:59.999Z,99.90
2023-02-06T21:21:28.127Z,99.80
2023-02-06T21:23:56.281Z,99.60
2023-02-06T21:26:25.109Z,99.80
2023-02-06T21:28:53.812Z,99.50
2023-02-06T21:31:24.361Z,99.60
2023-02-06T21:33:52.657Z,99.70
2023-02-06T21:36:21.235Z,99.60
2023-02-06T21:38:48.915Z,99.50
2023-02-06T21:41:18.833Z,99.40
2023-02-06T21:43:46.640Z,99.30
2023-02-06T21:46:14.226Z,99.30
2023-02-06T21:48:41.830Z,99.20
2023-02-06T21:51:14.248Z,99.40
2023-02-06T21:53:43.370Z,99.40
2023-02-06T21:56:16.335Z,99.20
2023-02-06T21:58:44.227Z,99.20
2023-02-06T22:01:23.433Z,99.20
2023-02-06T22:03:51.282Z,99.30
2023-02-06T22:06:20.090Z,99.30
2023-02-06T22:08:51.957Z,99.30
2023-02-06T22:11:27.060Z,99.40
2023-02-06T22:13:58.844Z,99.50
2023-02-06T22:16:28.727Z,99.30
2023-02-06T22:18:56.705Z,99.50
2023-02-06T22:21:26.650Z,99.60
2023-02-06T22:24:00.687Z,99.70
2023-02-06T22:26:30.577Z,99.70
2023-02-06T22:28:59.132Z,99.90
2023-02-06T22:31:29.976Z,99.90
2023-02-06T22:33:59.504Z,99.90
2023-02-06T22:36:29.755Z,99.90
2023-02-06T22:39:03.838Z,99.90
2023-02-06T22:41:31.403Z,99.90
2023-02-06T22:43:59.134Z,99.90
2023-02-06T22:46:30.021Z,99.90
2023-02-06T22:48:57.609Z,99.90
2023-02-06T22:51:25.850Z,99.90
2023-02-06T22:53:53.605Z,99.90
2023-02-06T22:56:27.167Z,99.90
2023-02-06T22:58:56.324Z,99.90
2023-02-06T23:01:26.299Z,99.90
2023-02-06T23:03:55.319Z,99.90
2023-02-06T23:06:22.850Z,99.90
2023-02-06T23:08:50.407Z,99.90
2023-02-06T23:11:18.244Z,99.90
2023-02-06T23:16:13.941Z,99.90
2023-02-06T23:18:41.747Z,99.90
2023-02-06T23:21:12.027Z,99.90
2023-02-06T23:23:41.576Z,99.90
2023-02-06T23:26:11.771Z,99.90
2023-02-06T23:28:40.621Z,99.90
2023-02-06T23:31:09.762Z,99.90
2023-02-06T23:33:38.345Z,99.90
2023-02-06T23:36:14.559Z,99.90
2023-02-06T23:38:43.544Z,99.90
2023-02-06T23:41:13.508Z,99.90
2023-02-06T23:43:41.518Z,99.90
2023-02-06T23:46:11.978Z,99.90
2023-02-06T23:48:40.127Z,99.90
2023-02-06T23:51:07.999Z,99.90
2023-02-06T23:53:35.685Z,99.90
2023-02-06T23:56:23.823Z,99.90
2023-02-06T23:58:52.804Z,99.90
